sensor_id;sensor_type;location;lat;lon;timestamp;temperature;humidity
29255;DHT22;16277;48.890;2.306;2022-10-23T00:12:36;20.90;99.90
29255;DHT22;16277;48.890;2.306;2022-10-23T00:27:41;20.80;99.90
29255;DHT22;16277;48.890;2.306;2022-10-23T00:42:46;20.80;99.90
29255;DHT22;16277;48.890;2.306;2022-10-23T00:57:51;20.80;99.90
29255;DHT22;16277;48.890;2.306;2022-10-23T01:13:01;20.80;99.90
29255;DHT22;16277;48.890;2.306;2022-10-23T01:28:10;20.80;99.90
29255;DHT22;16277;48.890;2.306;2022-10-23T01:43:19;20.70;99.90
29255;DHT22;16277;48.890;2.306;2022-10-23T01:58:27;20.70;99.90
29255;DHT22;16277;48.890;2.306;2022-10-23T02:13:37;20.70;99.90
29255;DHT22;16277;48.890;2.306;2022-10-23T02:28:51;20.70;99.90
29255;DHT22;16277;48.890;2.306;2022-10-23T02:44:14;20.60;99.90
29255;DHT22;16277;48.890;2.306;2022-10-23T02:59:26;20.70;99.90
29255;DHT22;16277;48.890;2.306;2022-10-23T03:14:36;20.60;99.90
29255;DHT22;16277;48.890;2.306;2022-10-23T03:29:41;20.70;99.90
29255;DHT22;16277;48.890;2.306;2022-10-23T03:44:45;20.60;99.90
29255;DHT22;16277;48.890;2.306;2022-10-23T03:59:49;20.50;99.90
29255;DHT22;16277;48.890;2.306;2022-10-23T04:14:55;20.60;99.90
29255;DHT22;16277;48.890;2.306;2022-10-23T04:29:59;20.50;99.90
29255;DHT22;16277;48.890;2.306;2022-10-23T04:45:06;20.40;99.90
29255;DHT22;16277;48.890;2.306;2022-10-23T05:00:13;20.40;99.90
29255;DHT22;16277;48.890;2.306;2022-10-23T05:15:26;20.20;99.90
29255;DHT22;16277;48.890;2.306;2022-10-23T05:30:31;20.40;99.90
29255;DHT22;16277;48.890;2.306;2022-10-23T05:45:37;20.30;99.90
29255;DHT22;16277;48.890;2.306;2022-10-23T06:01:19;20.30;99.90
29255;DHT22;16277;48.890;2.306;2022-10-23T06:16:38;20.40;99.90
29255;DHT22;16277;48.890;2.306;2022-10-23T06:31:43;20.40;99.90
29255;DHT22;16277;48.890;2.306;2022-10-23T06:46:48;20.20;99.90
29255;DHT22;16277;48.890;2.306;2022-10-23T07:02:12;20.30;99.90
29255;DHT22;16277;48.890;2.306;2022-10-23T07:17:17;20.30;99.90
29255;DHT22;16277;48.890;2.306;2022-10-23T07:32:22;20.30;99.90
29255;DHT22;16277;48.890;2.306;2022-10-23T07:47:50;20.30;99.90
29255;DHT22;16277;48.890;2.306;2022-10-23T08:02:58;20.40;99.90
29255;DHT22;16277;48.890;2.306;2022-10-23T08:18:03;20.40;99.90
29255;DHT22;16277;48.890;2.306;2022-10-23T08:33:16;20.50;99.90
29255;DHT22;16277;48.890;2.306;2022-10-23T08:48:24;20.60;99.90
29255;DHT22;16277;48.890;2.306;2022-10-23T09:03:55;20.70;99.90
29255;DHT22;16277;48.890;2.306;2022-10-23T09:19:00;21.00;99.90
29255;DHT22;16277;48.890;2.306;2022-10-23T09:34:05;21.10;99.90
29255;DHT22;16277;48.890;2.306;2022-10-23T09:49:22;21.20;99.90
29255;DHT22;16277;48.890;2.306;2022-10-23T10:04:37;21.50;99.90
29255;DHT22;16277;48.890;2.306;2022-10-23T10:19:58;21.70;99.90
29255;DHT22;16277;48.890;2.306;2022-10-23T10:35:18;21.90;99.90
29255;DHT22;16277;48.890;2.306;2022-10-23T10:50:30;22.00;99.90
29255;DHT22;16277;48.890;2.306;2022-10-23T11:05:53;22.20;99.90
29255;DHT22;16277;48.890;2.306;2022-10-23T11:21:21;22.70;99.90
29255;DHT22;16277;48.890;2.306;2022-10-23T11:36:42;22.70;99.90
29255;DHT22;16277;48.890;2.306;2022-10-23T11:51:46;22.60;99.90
29255;DHT22;16277;48.890;2.306;2022-10-23T12:07:12;23.00;99.90
29255;DHT22;16277;48.890;2.306;2022-10-23T12:22:18;23.20;99.90
29255;DHT22;16277;48.890;2.306;2022-10-23T12:52:58;23.60;99.90
29255;DHT22;16277;48.890;2.306;2022-10-23T13:08:05;23.60;99.90
29255;DHT22;16277;48.890;2.306;2022-10-23T13:23:25;23.40;99.90
29255;DHT22;16277;48.890;2.306;2022-10-23T13:38:33;23.20;99.90
29255;DHT22;16277;48.890;2.306;2022-10-23T13:53:38;23.20;99.90
29255;DHT22;16277;48.890;2.306;2022-10-23T14:08:42;23.40;99.90
29255;DHT22;16277;48.890;2.306;2022-10-23T14:23:48;23.50;99.90
29255;DHT22;16277;48.890;2.306;2022-10-23T14:38:55;25.30;99.90
29255;DHT22;16277;48.890;2.306;2022-10-23T14:54:01;26.20;99.90
29255;DHT22;16277;48.890;2.306;2022-10-23T15:09:06;25.70;99.90
29255;DHT22;16277;48.890;2.306;2022-10-23T15:24:10;25.10;99.90
29255;DHT22;16277;48.890;2.306;2022-10-23T15:39:16;24.20;99.90
29255;DHT22;16277;48.890;2.306;2022-10-23T15:54:21;24.00;99.90
29255;DHT22;16277;48.890;2.306;2022-10-23T16:09:30;23.80;99.90
29255;DHT22;16277;48.890;2.306;2022-10-23T16:24:35;23.50;99.90
29255;DHT22;16277;48.890;2.306;2022-10-23T16:39:39;23.20;99.90
29255;DHT22;16277;48.890;2.306;2022-10-23T16:55:09;23.00;99.90
29255;DHT22;16277;48.890;2.306;2022-10-23T17:10:14;22.70;99.90
29255;DHT22;16277;48.890;2.306;2022-10-23T17:25:18;22.50;99.90
29255;DHT22;16277;48.890;2.306;2022-10-23T17:40:23;22.50;99.90
29255;DHT22;16277;48.890;2.306;2022-10-23T17:55:29;22.40;99.90
29255;DHT22;16277;48.890;2.306;2022-10-23T18:10:35;22.30;99.90
29255;DHT22;16277;48.890;2.306;2022-10-23T18:25:42;22.20;99.90
29255;DHT22;16277;48.890;2.306;2022-10-23T18:40:52;22.20;99.90
29255;DHT22;16277;48.890;2.306;2022-10-23T18:55:57;22.00;99.90
29255;DHT22;16277;48.890;2.306;2022-10-23T19:11:03;21.90;99.90
29255;DHT22;16277;48.890;2.306;2022-10-23T19:26:10;21.90;99.90
29255;DHT22;16277;48.890;2.306;2022-10-23T19:41:15;21.90;99.90
29255;DHT22;16277;48.890;2.306;2022-10-23T19:56:21;21.80;99.90
29255;DHT22;16277;48.890;2.306;2022-10-23T20:11:28;21.80;99.90
29255;DHT22;16277;48.890;2.306;2022-10-23T20:26:33;21.70;99.90
29255;DHT22;16277;48.890;2.306;2022-10-23T20:41:38;21.60;99.90
29255;DHT22;16277;48.890;2.306;2022-10-23T20:56:44;21.20;99.90
29255;DHT22;16277;48.890;2.306;2022-10-23T21:11:49;21.30;99.90
29255;DHT22;16277;48.890;2.306;2022-10-23T21:26:53;21.00;99.90
29255;DHT22;16277;48.890;2.306;2022-10-23T21:41:57;20.80;99.90
29255;DHT22;16277;48.890;2.306;2022-10-23T21:57:02;20.70;99.90
29255;DHT22;16277;48.890;2.306;2022-10-23T22:12:08;20.80;99.90
29255;DHT22;16277;48.890;2.306;2022-10-23T22:27:13;20.70;99.90
29255;DHT22;16277;48.890;2.306;2022-10-23T22:42:18;20.70;99.90
29255;DHT22;16277;48.890;2.306;2022-10-23T22:57:22;20.50;99.90
29255;DHT22;16277;48.890;2.306;2022-10-23T23:12:32;20.30;99.90
29255;DHT22;16277;48.890;2.306;2022-10-23T23:27:39;20.30;99.90
29255;DHT22;16277;48.890;2.306;2022-10-23T23:42:43;20.10;99.90
29255;DHT22;16277;48.890;2.306;2022-10-23T23:57:49;20.30;99.90
